WetterOnline ( https://www.wetteronline.de )

Wetter aktuell Hof

Aktuelles Wetter: Hof/Flughafen (568m)

6-stündlich | Neueste Meldungen
Ortszeit Temperatur Wetter
So, 29.05. 8:00 7.2° C fast wolkenlos
So, 29.05. 2:00 5.5° C fast wolkenlos
Sa, 28.05. 20:00 11.4° C leicht bewölkt
Sa, 28.05. 14:00 11.8° C bewölkt
Sa, 28.05. 8:00 7.4° C fast wolkenlos
Sa, 28.05. 2:00 7.8° C wolkenlos
Fr, 27.05. 20:00 14.5° C leicht bewölkt
Fr, 27.05. 14:00 10.7° C leichter Regen
Ortszeit Temperatur Wetter
So, 29.05. 11:30 10.1° C wolkig
So, 29.05. 11:20 10.1° C wolkig
So, 29.05. 11:10 11.0° C wolkig
So, 29.05. 11:00 10.4° C wolkig
So, 29.05. 10:50 10.4° C wolkig
So, 29.05. 10:40 10.2° C leicht bewölkt
So, 29.05. 10:30 10.2° C wolkenlos
So, 29.05. 10:00 8.8° C wolkenlos
So, 29.05. 9:30 9.4° C wolkenlos
So, 29.05. 9:00 8.7° C wolkenlos
So, 29.05. 8:30 7.5° C wolkig
So, 29.05. 8:00 7.2° C fast wolkenlos
Ortszeit Relative Feuchte Sichtweite
So, 29.05. 8:00 75% 40 km
So, 29.05. 2:00 79% 45 km
Sa, 28.05. 20:00 51% >70 km
Sa, 28.05. 14:00 47% 65 km
Sa, 28.05. 8:00 71% 65 km
Sa, 28.05. 2:00 68% 40 km
Fr, 27.05. 20:00 58% 65 km
Fr, 27.05. 14:00 92% 24 km
Ortszeit Relative Feuchte Sichtweite
So, 29.05. 11:30 49% 60 km
So, 29.05. 11:20 49% -
So, 29.05. 11:10 46% -
So, 29.05. 11:00 53% 40 km
So, 29.05. 10:50 53% -
So, 29.05. 10:40 51% -
So, 29.05. 10:30 51% 55 km
So, 29.05. 10:00 59% 60 km
So, 29.05. 9:30 64% 65 km
So, 29.05. 9:00 65% 60 km
So, 29.05. 8:30 71% 45 km
So, 29.05. 8:00 75% 40 km
Ortszeit Niederschlagsmenge Niederschlagsart
So, 29.05. 8:00 0.0 l/m2 in 12 Std. -
So, 29.05. 2:00 0.0 l/m2 in 6 Std. -
Sa, 28.05. 20:00 0.1 l/m2 in 12 Std. -
Sa, 28.05. 14:00 0.1 l/m2 in 6 Std. Regen
Sa, 28.05. 8:00 0.0 l/m2 in 12 Std. -
Sa, 28.05. 2:00 0.0 l/m2 in 6 Std. -
Fr, 27.05. 20:00 5 l/m2 in 12 Std. Regen
Fr, 27.05. 14:00 0.1 l/m2 in 6 Std. Regen
Ortszeit Niederschlagsmenge Niederschlagsart
So, 29.05. 11:30 0.1 l/m2 in 1 Std. Schneeregen
So, 29.05. 11:20 keine Meldung -
So, 29.05. 11:10 keine Meldung -
So, 29.05. 11:00 0.0 l/m2 in 1 Std. -
So, 29.05. 10:50 keine Meldung -
So, 29.05. 10:40 keine Meldung -
So, 29.05. 10:30 0.0 l/m2 in 1 Std. -
So, 29.05. 10:00 0.0 l/m2 in 1 Std. -
So, 29.05. 9:30 0.0 l/m2 in 1 Std. -
So, 29.05. 9:00 0.0 l/m2 in 1 Std. -
So, 29.05. 8:30 0.0 l/m2 in 1 Std. -
So, 29.05. 8:00 0.0 l/m2 in 1 Std. -
Ortszeit Stärke Spitze Richtung
km/h Bft. km/h Grad Sektor
So, 29.05. 8:00 9 2 19 340° N
So, 29.05. 2:00 7 2 29 310° NW
Sa, 28.05. 20:00 14 3 40 340° N
Sa, 28.05. 14:00 14 3 40 280° W
Sa, 28.05. 8:00 18 3 36 260° W
Sa, 28.05. 2:00 9 2 30 300° NW
Fr, 27.05. 20:00 14 3 40 290° W
Fr, 27.05. 14:00 13 3 37 340° N
Ortszeit Stärke Spitze Richtung
km/h Bft. km/h Grad Sektor
So, 29.05. 11:30 9 2 13 330° NW
So, 29.05. 11:20 9 2 - 330° NW
So, 29.05. 11:10 7 2 - 330° NW
So, 29.05. 11:00 7 2 18 10° N
So, 29.05. 10:50 7 2 - 10° N
So, 29.05. 10:40 7 2 - 350° N
So, 29.05. 10:30 4 1 11 90° O
So, 29.05. 10:00 7 2 14 320° NW
So, 29.05. 9:30 7 2 15 330° NW
So, 29.05. 9:00 9 2 19 340° N
So, 29.05. 8:30 11 2 18 340° N
So, 29.05. 8:00 9 2 19 340° N
Ortszeit Untergrenze Bedeckung Gattung
total tief tief mittel hoch
So, 29.05. 8:00 2100 m 1/8 1/8 - - -
So, 29.05. 2:00 2400 m 1/8 1/8 - - -
Sa, 28.05. 20:00 2100 m 3/8 3/8 - - -
Sa, 28.05. 14:00 1380 m 7/8 7/8 - - -
Sa, 28.05. 8:00 930 m 1/8 1/8 - - -
Sa, 28.05. 2:00 - 0/8 0/8 - - -
Fr, 27.05. 20:00 2400 m 4/8 4/8 - - -
Fr, 27.05. 14:00 120 m 8/8 8/8 - - -
Ortszeit Bedeckungsgrad in Achtel und Wolkenuntergrenze
So, 29.05. 11:30 2(1350m) 6(1800m)
So, 29.05. 11:20 2(1350m) 6(1800m)
So, 29.05. 11:10 6
So, 29.05. 11:00 5(1290m) 6(1500m)
So, 29.05. 10:50 5(1290m) 6(1500m)
So, 29.05. 10:40 4
So, 29.05. 10:30 keine Wolken
So, 29.05. 10:00 keine Wolken
So, 29.05. 9:30 keine Wolken
So, 29.05. 9:00 keine Wolken
So, 29.05. 8:30 5(2400m)
So, 29.05. 8:00 1(2100m)
Ortszeit Luftdruck NN (hPa) Tendenz (hPa in 3 Std.)
So, 29.05. 8:00 1014 - 0,7
So, 29.05. 2:00 1017 - 1,3
Sa, 28.05. 20:00 1016 - 0,3
Sa, 28.05. 14:00 1018 - 0,3
Sa, 28.05. 8:00 1019 0,0
Sa, 28.05. 2:00 1019 - 0,5
Fr, 27.05. 20:00 1017 - 0,2
Fr, 27.05. 14:00 1019 - 0,4
Ortszeit Luftdruck NN (hPa) Tendenz (hPa in 3 Std.)
So, 29.05. 11:30 1013 - 0,6
So, 29.05. 11:20 1013 keine Meldung
So, 29.05. 11:10 1013 keine Meldung
So, 29.05. 11:00 1013 - 0,3
So, 29.05. 10:50 1013 keine Meldung
So, 29.05. 10:40 1013 keine Meldung
So, 29.05. 10:30 1013 - 0,1
So, 29.05. 10:00 1014 - 0,2
So, 29.05. 9:30 1014 - 0,2
So, 29.05. 9:00 1014 - 0,3
So, 29.05. 8:30 1014 - 0,3
So, 29.05. 8:00 1014 - 0,7
Ortszeit Schneehöhe (cm)
So, 29.05. 8:00 0
So, 29.05. 2:00 0
Sa, 28.05. 20:00 0
Sa, 28.05. 14:00 0
Sa, 28.05. 8:00 0
Sa, 28.05. 2:00 0
Fr, 27.05. 20:00 0
Fr, 27.05. 14:00 0
Ortszeit Schneehöhe (cm)
So, 29.05. 11:30 0
So, 29.05. 11:20 0
So, 29.05. 11:10 0
So, 29.05. 11:00 0
So, 29.05. 10:50 0
So, 29.05. 10:40 0
So, 29.05. 10:30 0
So, 29.05. 10:00 0
So, 29.05. 9:30 0
So, 29.05. 9:00 0
So, 29.05. 8:30 0
So, 29.05. 8:00 0
Link zu dieser Seite / Seite empfehlen

Das Wetter in ...